sensor_id;sensor_type;location;lat;lon;timestamp;temperature;humidity
74384;DHT22;62824;52.994;-3.936;2024-01-10T00:00:00;0.60;99.90
74384;DHT22;62824;52.994;-3.936;2024-01-10T00:02:35;0.60;99.90
74384;DHT22;62824;52.994;-3.936;2024-01-10T00:05:16;0.60;99.90
74384;DHT22;62824;52.994;-3.936;2024-01-10T00:07:47;0.70;99.90
74384;DHT22;62824;52.994;-3.936;2024-01-10T00:10:16;0.60;99.90
74384;DHT22;62824;52.994;-3.936;2024-01-10T00:12:50;0.70;99.90
74384;DHT22;62824;52.994;-3.936;2024-01-10T00:15:41;0.60;99.90
74384;DHT22;62824;52.994;-3.936;2024-01-10T00:18:24;0.60;99.90
74384;DHT22;62824;52.994;-3.936;2024-01-10T00:21:38;0.60;99.90
74384;DHT22;62824;52.994;-3.936;2024-01-10T00:24:15;0.60;99.90
74384;DHT22;62824;52.994;-3.936;2024-01-10T00:27:05;0.50;99.90
74384;DHT22;62824;52.994;-3.936;2024-01-10T00:29:45;0.50;99.90
74384;DHT22;62824;52.994;-3.936;2024-01-10T00:32:42;0.50;99.90
74384;DHT22;62824;52.994;-3.936;2024-01-10T00:35:41;0.50;99.90
74384;DHT22;62824;52.994;-3.936;2024-01-10T00:41:26;0.50;99.90
74384;DHT22;62824;52.994;-3.936;2024-01-10T00:44:01;0.50;99.90
74384;DHT22;62824;52.994;-3.936;2024-01-10T00:47:03;0.50;99.90
74384;DHT22;62824;52.994;-3.936;2024-01-10T00:49:26;0.60;99.90
74384;DHT22;62824;52.994;-3.936;2024-01-10T00:52:03;0.50;99.90
74384;DHT22;62824;52.994;-3.936;2024-01-10T00:54:37;0.50;99.90
74384;DHT22;62824;52.994;-3.936;2024-01-10T00:57:31;0.60;99.90
74384;DHT22;62824;52.994;-3.936;2024-01-10T01:00:24;0.50;99.90
74384;DHT22;62824;52.994;-3.936;2024-01-10T01:03:15;0.50;99.90
74384;DHT22;62824;52.994;-3.936;2024-01-10T01:05:53;0.50;99.90
74384;DHT22;62824;52.994;-3.936;2024-01-10T01:19:04;0.50;99.90
74384;DHT22;62824;52.994;-3.936;2024-01-10T01:22:28;0.40;99.90
74384;DHT22;62824;52.994;-3.936;2024-01-10T01:32:33;0.40;99.90
74384;DHT22;62824;52.994;-3.936;2024-01-10T01:45:29;0.50;99.90
74384;DHT22;62824;52.994;-3.936;2024-01-10T01:48:13;0.50;99.90
74384;DHT22;62824;52.994;-3.936;2024-01-10T01:50:40;0.50;99.90
74384;DHT22;62824;52.994;-3.936;2024-01-10T01:53:15;0.50;99.90
74384;DHT22;62824;52.994;-3.936;2024-01-10T01:56:40;0.50;99.90
74384;DHT22;62824;52.994;-3.936;2024-01-10T01:59:25;0.60;99.90
74384;DHT22;62824;52.994;-3.936;2024-01-10T02:02:05;0.60;99.90
74384;DHT22;62824;52.994;-3.936;2024-01-10T02:05:07;0.60;99.90
74384;DHT22;62824;52.994;-3.936;2024-01-10T02:08:23;0.60;99.90
74384;DHT22;62824;52.994;-3.936;2024-01-10T02:11:08;0.60;99.90
74384;DHT22;62824;52.994;-3.936;2024-01-10T02:16:47;0.70;99.90
74384;DHT22;62824;52.994;-3.936;2024-01-10T02:19:29;0.70;99.90
74384;DHT22;62824;52.994;-3.936;2024-01-10T02:25:13;0.70;99.90
74384;DHT22;62824;52.994;-3.936;2024-01-10T02:27:56;0.70;99.90
74384;DHT22;62824;52.994;-3.936;2024-01-10T02:31:06;0.70;99.90
74384;DHT22;62824;52.994;-3.936;2024-01-10T02:33:31;0.70;99.90
74384;DHT22;62824;52.994;-3.936;2024-01-10T02:38:46;0.70;99.90
74384;DHT22;62824;52.994;-3.936;2024-01-10T02:41:23;0.70;99.90
74384;DHT22;62824;52.994;-3.936;2024-01-10T02:43:59;0.70;99.90
74384;DHT22;62824;52.994;-3.936;2024-01-10T02:46:36;0.70;99.90
74384;DHT22;62824;52.994;-3.936;2024-01-10T02:49:12;0.70;99.90
74384;DHT22;62824;52.994;-3.936;2024-01-10T02:51:56;0.70;99.90
74384;DHT22;62824;52.994;-3.936;2024-01-10T02:54:25;0.70;99.90
74384;DHT22;62824;52.994;-3.936;2024-01-10T02:57:03;0.60;99.90
74384;DHT22;62824;52.994;-3.936;2024-01-10T03:00:02;0.70;99.90
74384;DHT22;62824;52.994;-3.936;2024-01-10T03:02:52;0.60;99.90
74384;DHT22;62824;52.994;-3.936;2024-01-10T03:05:53;0.70;99.90
74384;DHT22;62824;52.994;-3.936;2024-01-10T03:08:29;0.60;99.90
74384;DHT22;62824;52.994;-3.936;2024-01-10T03:11:06;0.60;99.90
74384;DHT22;62824;52.994;-3.936;2024-01-10T03:13:35;0.60;99.90
74384;DHT22;62824;52.994;-3.936;2024-01-10T03:16:14;0.70;99.90
74384;DHT22;62824;52.994;-3.936;2024-01-10T03:18:46;0.60;99.90
74384;DHT22;62824;52.994;-3.936;2024-01-10T03:21:50;0.60;99.90
74384;DHT22;62824;52.994;-3.936;2024-01-10T03:24:50;0.70;99.90
74384;DHT22;62824;52.994;-3.936;2024-01-10T03:27:35;0.70;99.90
74384;DHT22;62824;52.994;-3.936;2024-01-10T03:30:30;0.60;99.90
74384;DHT22;62824;52.994;-3.936;2024-01-10T03:32:59;0.60;99.90
74384;DHT22;62824;52.994;-3.936;2024-01-10T03:35:30;0.60;99.90
74384;DHT22;62824;52.994;-3.936;2024-01-10T03:38:18;0.60;99.90
74384;DHT22;62824;52.994;-3.936;2024-01-10T03:40:45;0.60;99.90
74384;DHT22;62824;52.994;-3.936;2024-01-10T03:43:28;0.60;99.90
74384;DHT22;62824;52.994;-3.936;2024-01-10T03:49:29;0.60;99.90
74384;DHT22;62824;52.994;-3.936;2024-01-10T03:52:20;0.60;99.90
74384;DHT22;62824;52.994;-3.936;2024-01-10T03:55:02;0.60;99.90
74384;DHT22;62824;52.994;-3.936;2024-01-10T03:58:42;0.60;99.90
74384;DHT22;62824;52.994;-3.936;2024-01-10T04:04:30;0.60;99.90
74384;DHT22;62824;52.994;-3.936;2024-01-10T04:07:31;0.60;99.90
74384;DHT22;62824;52.994;-3.936;2024-01-10T04:10:00;0.60;99.90
74384;DHT22;62824;52.994;-3.936;2024-01-10T04:12:52;0.70;99.90
74384;DHT22;62824;52.994;-3.936;2024-01-10T04:15:24;0.70;99.90
74384;DHT22;62824;52.994;-3.936;2024-01-10T04:18:26;0.70;99.90
74384;DHT22;62824;52.994;-3.936;2024-01-10T04:21:04;0.70;99.90
74384;DHT22;62824;52.994;-3.936;2024-01-10T04:23:48;0.70;99.90
74384;DHT22;62824;52.994;-3.936;2024-01-10T04:27:04;0.70;99.90
74384;DHT22;62824;52.994;-3.936;2024-01-10T04:29:35;0.70;99.90
74384;DHT22;62824;52.994;-3.936;2024-01-10T04:32:38;0.70;99.90
74384;DHT22;62824;52.994;-3.936;2024-01-10T04:35:36;0.70;99.90
74384;DHT22;62824;52.994;-3.936;2024-01-10T04:38:38;0.80;99.90
74384;DHT22;62824;52.994;-3.936;2024-01-10T04:44:17;0.80;99.90
74384;DHT22;62824;52.994;-3.936;2024-01-10T04:46:49;0.80;99.90
74384;DHT22;62824;52.994;-3.936;2024-01-10T04:52:38;0.90;99.90
74384;DHT22;62824;52.994;-3.936;2024-01-10T04:55:07;0.90;99.90
74384;DHT22;62824;52.994;-3.936;2024-01-10T04:58:05;0.90;99.90
74384;DHT22;62824;52.994;-3.936;2024-01-10T05:00:44;0.90;99.90
74384;DHT22;62824;52.994;-3.936;2024-01-10T05:03:34;1.00;99.90
74384;DHT22;62824;52.994;-3.936;2024-01-10T05:06:15;1.00;99.90
74384;DHT22;62824;52.994;-3.936;2024-01-10T05:08:53;1.00;99.90
74384;DHT22;62824;52.994;-3.936;2024-01-10T05:18:05;1.00;99.90
74384;DHT22;62824;52.994;-3.936;2024-01-10T05:20:34;0.90;99.90
74384;DHT22;62824;52.994;-3.936;2024-01-10T05:23:19;0.90;99.90
74384;DHT22;62824;52.994;-3.936;2024-01-10T05:26:05;0.90;99.90
74384;DHT22;62824;52.994;-3.936;2024-01-10T05:28:40;0.90;99.90
74384;DHT22;62824;52.994;-3.936;2024-01-10T05:31:22;0.90;99.90
74384;DHT22;62824;52.994;-3.936;2024-01-10T05:34:00;0.90;99.90
74384;DHT22;62824;52.994;-3.936;2024-01-10T05:36:46;0.80;99.90
74384;DHT22;62824;52.994;-3.936;2024-01-10T05:39:12;0.90;99.90
74384;DHT22;62824;52.994;-3.936;2024-01-10T05:41:41;0.80;99.90
74384;DHT22;62824;52.994;-3.936;2024-01-10T05:44:09;0.80;99.90
74384;DHT22;62824;52.994;-3.936;2024-01-10T05:46:35;0.80;99.90
74384;DHT22;62824;52.994;-3.936;2024-01-10T05:49:01;0.90;99.90
74384;DHT22;62824;52.994;-3.936;2024-01-10T05:51:27;0.90;99.90
74384;DHT22;62824;52.994;-3.936;2024-01-10T05:53:53;0.90;99.90
74384;DHT22;62824;52.994;-3.936;2024-01-10T05:56:18;0.90;99.90
74384;DHT22;62824;52.994;-3.936;2024-01-10T05:58:44;0.90;99.90
74384;DHT22;62824;52.994;-3.936;2024-01-10T06:01:10;1.00;99.90
74384;DHT22;62824;52.994;-3.936;2024-01-10T06:03:36;1.00;99.90
74384;DHT22;62824;52.994;-3.936;2024-01-10T06:06:02;1.10;99.90
74384;DHT22;62824;52.994;-3.936;2024-01-10T06:08:29;1.10;99.90
74384;DHT22;62824;52.994;-3.936;2024-01-10T06:10:55;1.10;99.90
74384;DHT22;62824;52.994;-3.936;2024-01-10T06:13:21;1.10;99.90
74384;DHT22;62824;52.994;-3.936;2024-01-10T06:15:47;1.10;99.90
74384;DHT22;62824;52.994;-3.936;2024-01-10T06:18:13;1.10;99.90
74384;DHT22;62824;52.994;-3.936;2024-01-10T06:20:39;1.10;99.90
74384;DHT22;62824;52.994;-3.936;2024-01-10T06:23:05;1.10;99.90
74384;DHT22;62824;52.994;-3.936;2024-01-10T06:25:31;1.20;99.90
74384;DHT22;62824;52.994;-3.936;2024-01-10T06:27:57;1.20;99.90
74384;DHT22;62824;52.994;-3.936;2024-01-10T06:30:26;1.20;99.90
74384;DHT22;62824;52.994;-3.936;2024-01-10T06:32:51;1.10;99.90
74384;DHT22;62824;52.994;-3.936;2024-01-10T06:35:17;1.10;99.90
74384;DHT22;62824;52.994;-3.936;2024-01-10T06:37:43;1.20;99.90
74384;DHT22;62824;52.994;-3.936;2024-01-10T06:40:10;1.20;99.90
74384;DHT22;62824;52.994;-3.936;2024-01-10T06:42:36;1.20;99.90
74384;DHT22;62824;52.994;-3.936;2024-01-10T06:45:03;1.30;99.90
74384;DHT22;62824;52.994;-3.936;2024-01-10T06:47:31;1.30;99.90
74384;DHT22;62824;52.994;-3.936;2024-01-10T06:49:57;1.30;99.90
74384;DHT22;62824;52.994;-3.936;2024-01-10T06:52:26;1.40;99.90
74384;DHT22;62824;52.994;-3.936;2024-01-10T06:54:52;1.40;99.90
74384;DHT22;62824;52.994;-3.936;2024-01-10T06:57:18;1.40;99.90
74384;DHT22;62824;52.994;-3.936;2024-01-10T06:59:44;1.40;99.90
74384;DHT22;62824;52.994;-3.936;2024-01-10T07:02:10;1.50;99.90
74384;DHT22;62824;52.994;-3.936;2024-01-10T07:04:46;1.60;99.90
74384;DHT22;62824;52.994;-3.936;2024-01-10T07:07:15;1.60;99.90
74384;DHT22;62824;52.994;-3.936;2024-01-10T07:09:42;1.60;99.90
74384;DHT22;62824;52.994;-3.936;2024-01-10T07:12:08;1.60;99.90
74384;DHT22;62824;52.994;-3.936;2024-01-10T07:14:34;1.70;99.90
74384;DHT22;62824;52.994;-3.936;2024-01-10T07:17:00;1.70;99.90
74384;DHT22;62824;52.994;-3.936;2024-01-10T07:19:30;1.70;99.90
74384;DHT22;62824;52.994;-3.936;2024-01-10T07:21:56;1.70;99.90
74384;DHT22;62824;52.994;-3.936;2024-01-10T07:24:22;1.80;99.90
74384;DHT22;62824;52.994;-3.936;2024-01-10T07:26:48;1.80;99.90
74384;DHT22;62824;52.994;-3.936;2024-01-10T07:29:17;1.80;99.90
74384;DHT22;62824;52.994;-3.936;2024-01-10T07:31:44;1.90;99.90
74384;DHT22;62824;52.994;-3.936;2024-01-10T07:34:10;1.90;99.90
74384;DHT22;62824;52.994;-3.936;2024-01-10T07:36:43;1.90;99.90
74384;DHT22;62824;52.994;-3.936;2024-01-10T07:39:14;1.90;99.90
74384;DHT22;62824;52.994;-3.936;2024-01-10T07:41:46;1.90;99.90
74384;DHT22;62824;52.994;-3.936;2024-01-10T07:44:15;1.90;99.90
74384;DHT22;62824;52.994;-3.936;2024-01-10T07:46:49;1.90;99.90
74384;DHT22;62824;52.994;-3.936;2024-01-10T07:49:35;1.90;99.90
74384;DHT22;62824;52.994;-3.936;2024-01-10T07:52:02;1.90;99.90
74384;DHT22;62824;52.994;-3.936;2024-01-10T07:54:30;1.90;99.90
74384;DHT22;62824;52.994;-3.936;2024-01-10T07:56:58;2.00;99.90
74384;DHT22;62824;52.994;-3.936;2024-01-10T07:59:24;2.00;99.90
74384;DHT22;62824;52.994;-3.936;2024-01-10T08:01:55;2.00;99.90
74384;DHT22;62824;52.994;-3.936;2024-01-10T08:04:27;2.00;99.90
74384;DHT22;62824;52.994;-3.936;2024-01-10T08:06:54;2.10;99.90
74384;DHT22;62824;52.994;-3.936;2024-01-10T08:09:21;2.00;99.90
74384;DHT22;62824;52.994;-3.936;2024-01-10T08:11:49;2.10;99.90
74384;DHT22;62824;52.994;-3.936;2024-01-10T08:14:15;2.10;99.90
74384;DHT22;62824;52.994;-3.936;2024-01-10T08:16:42;2.10;99.90
74384;DHT22;62824;52.994;-3.936;2024-01-10T08:19:11;2.10;99.90
74384;DHT22;62824;52.994;-3.936;2024-01-10T08:21:37;2.20;99.90
74384;DHT22;62824;52.994;-3.936;2024-01-10T08:24:03;2.10;99.90
74384;DHT22;62824;52.994;-3.936;2024-01-10T08:26:30;2.10;99.90
74384;DHT22;62824;52.994;-3.936;2024-01-10T08:28:56;2.10;99.90
74384;DHT22;62824;52.994;-3.936;2024-01-10T08:31:22;2.20;99.90
74384;DHT22;62824;52.994;-3.936;2024-01-10T08:33:49;2.20;99.90
74384;DHT22;62824;52.994;-3.936;2024-01-10T08:36:15;2.20;99.90
74384;DHT22;62824;52.994;-3.936;2024-01-10T08:38:41;2.30;99.90
74384;DHT22;62824;52.994;-3.936;2024-01-10T08:41:08;2.30;99.90
74384;DHT22;62824;52.994;-3.936;2024-01-10T08:43:38;2.30;99.90
74384;DHT22;62824;52.994;-3.936;2024-01-10T08:46:04;2.40;99.90
74384;DHT22;62824;52.994;-3.936;2024-01-10T08:48:30;2.50;99.90
74384;DHT22;62824;52.994;-3.936;2024-01-10T08:50:56;2.50;99.90
74384;DHT22;62824;52.994;-3.936;2024-01-10T08:53:22;2.50;99.90
74384;DHT22;62824;52.994;-3.936;2024-01-10T08:55:48;2.50;99.90
74384;DHT22;62824;52.994;-3.936;2024-01-10T08:58:14;2.50;99.90
74384;DHT22;62824;52.994;-3.936;2024-01-10T09:00:40;2.50;99.90
74384;DHT22;62824;52.994;-3.936;2024-01-10T09:03:09;2.50;99.90
74384;DHT22;62824;52.994;-3.936;2024-01-10T09:05:38;2.50;99.90
74384;DHT22;62824;52.994;-3.936;2024-01-10T09:08:15;2.60;99.90
74384;DHT22;62824;52.994;-3.936;2024-01-10T09:10:45;2.60;99.90
74384;DHT22;62824;52.994;-3.936;2024-01-10T09:13:18;2.60;99.90
74384;DHT22;62824;52.994;-3.936;2024-01-10T09:18:55;2.70;99.90
74384;DHT22;62824;52.994;-3.936;2024-01-10T10:16:47;3.30;99.90
74384;DHT22;62824;52.994;-3.936;2024-01-10T10:19:23;3.30;99.90
74384;DHT22;62824;52.994;-3.936;2024-01-10T10:21:49;3.40;99.90
74384;DHT22;62824;52.994;-3.936;2024-01-10T10:24:15;3.30;99.90
74384;DHT22;62824;52.994;-3.936;2024-01-10T10:26:42;3.40;99.90
74384;DHT22;62824;52.994;-3.936;2024-01-10T10:29:09;3.40;99.90
74384;DHT22;62824;52.994;-3.936;2024-01-10T10:31:35;3.40;99.90
74384;DHT22;62824;52.994;-3.936;2024-01-10T10:34:02;3.50;99.90
74384;DHT22;62824;52.994;-3.936;2024-01-10T10:36:31;3.50;99.90
74384;DHT22;62824;52.994;-3.936;2024-01-10T10:39:00;3.40;99.90
74384;DHT22;62824;52.994;-3.936;2024-01-10T10:41:31;3.50;99.90
74384;DHT22;62824;52.994;-3.936;2024-01-10T10:43:58;3.40;99.90
74384;DHT22;62824;52.994;-3.936;2024-01-10T10:46:27;3.60;99.90
74384;DHT22;62824;52.994;-3.936;2024-01-10T10:48:53;3.80;99.90
74384;DHT22;62824;52.994;-3.936;2024-01-10T10:51:27;3.90;99.90
74384;DHT22;62824;52.994;-3.936;2024-01-10T10:53:59;4.50;99.90
74384;DHT22;62824;52.994;-3.936;2024-01-10T10:56:31;4.50;99.90
74384;DHT22;62824;52.994;-3.936;2024-01-10T10:59:00;4.10;99.90
74384;DHT22;62824;52.994;-3.936;2024-01-10T11:01:27;4.40;99.90
74384;DHT22;62824;52.994;-3.936;2024-01-10T11:03:55;4.90;99.90
74384;DHT22;62824;52.994;-3.936;2024-01-10T11:06:25;4.60;99.90
74384;DHT22;62824;52.994;-3.936;2024-01-10T11:09:09;4.30;99.90
74384;DHT22;62824;52.994;-3.936;2024-01-10T11:24:00;3.70;99.90
74384;DHT22;62824;52.994;-3.936;2024-01-10T11:26:27;3.70;99.90
74384;DHT22;62824;52.994;-3.936;2024-01-10T11:37:53;4.00;99.90
74384;DHT22;62824;52.994;-3.936;2024-01-10T11:40:47;4.10;99.90
74384;DHT22;62824;52.994;-3.936;2024-01-10T11:43:31;4.10;99.90
74384;DHT22;62824;52.994;-3.936;2024-01-10T13:05:50;4.60;99.90
74384;DHT22;62824;52.994;-3.936;2024-01-10T13:08:39;4.70;99.90
74384;DHT22;62824;52.994;-3.936;2024-01-10T13:11:07;4.60;99.90
74384;DHT22;62824;52.994;-3.936;2024-01-10T13:13:38;4.60;99.90
74384;DHT22;62824;52.994;-3.936;2024-01-10T13:16:31;4.60;99.90
74384;DHT22;62824;52.994;-3.936;2024-01-10T13:19:32;4.60;99.90
74384;DHT22;62824;52.994;-3.936;2024-01-10T13:22:09;4.50;99.90
74384;DHT22;62824;52.994;-3.936;2024-01-10T13:24:45;4.40;99.90
74384;DHT22;62824;52.994;-3.936;2024-01-10T14:26:10;3.90;99.90
74384;DHT22;62824;52.994;-3.936;2024-01-10T14:28:42;4.10;99.90
74384;DHT22;62824;52.994;-3.936;2024-01-10T14:31:07;4.10;99.90
74384;DHT22;62824;52.994;-3.936;2024-01-10T14:33:35;4.10;99.90
74384;DHT22;62824;52.994;-3.936;2024-01-10T15:58:29;4.10;99.90
74384;DHT22;62824;52.994;-3.936;2024-01-10T16:01:32;4.10;99.90
74384;DHT22;62824;52.994;-3.936;2024-01-10T16:04:06;4.10;99.90
74384;DHT22;62824;52.994;-3.936;2024-01-10T16:06:38;4.10;99.90
74384;DHT22;62824;52.994;-3.936;2024-01-10T16:09:26;4.10;99.90
74384;DHT22;62824;52.994;-3.936;2024-01-10T16:11:52;4.10;99.90
74384;DHT22;62824;52.994;-3.936;2024-01-10T16:14:30;4.20;99.90
74384;DHT22;62824;52.994;-3.936;2024-01-10T16:17:03;4.20;99.90
74384;DHT22;62824;52.994;-3.936;2024-01-10T16:19:50;4.30;99.90
74384;DHT22;62824;52.994;-3.936;2024-01-10T16:22:47;4.30;99.90
74384;DHT22;62824;52.994;-3.936;2024-01-10T16:25:14;4.20;99.90
74384;DHT22;62824;52.994;-3.936;2024-01-10T16:27:42;4.20;99.90
74384;DHT22;62824;52.994;-3.936;2024-01-10T16:30:11;4.20;99.90
74384;DHT22;62824;52.994;-3.936;2024-01-10T16:32:38;4.30;99.90
74384;DHT22;62824;52.994;-3.936;2024-01-10T16:35:20;4.30;99.90
74384;DHT22;62824;52.994;-3.936;2024-01-10T16:46:41;4.40;99.90
74384;DHT22;62824;52.994;-3.936;2024-01-10T16:49:09;4.40;99.90
74384;DHT22;62824;52.994;-3.936;2024-01-10T17:00:37;4.40;99.90
74384;DHT22;62824;52.994;-3.936;2024-01-10T17:03:05;4.60;99.90
74384;DHT22;62824;52.994;-3.936;2024-01-10T17:05:41;4.50;99.90
74384;DHT22;62824;52.994;-3.936;2024-01-10T17:08:11;4.50;99.90
74384;DHT22;62824;52.994;-3.936;2024-01-10T17:10:52;4.60;99.90
74384;DHT22;62824;52.994;-3.936;2024-01-10T17:13:25;4.60;99.90
74384;DHT22;62824;52.994;-3.936;2024-01-10T17:15:51;4.60;99.90
74384;DHT22;62824;52.994;-3.936;2024-01-10T17:18:17;4.60;99.90
74384;DHT22;62824;52.994;-3.936;2024-01-10T17:20:43;4.60;99.90
74384;DHT22;62824;52.994;-3.936;2024-01-10T17:23:09;4.60;99.90
74384;DHT22;62824;52.994;-3.936;2024-01-10T17:25:35;4.60;99.90
74384;DHT22;62824;52.994;-3.936;2024-01-10T17:28:01;4.60;99.90
74384;DHT22;62824;52.994;-3.936;2024-01-10T17:30:31;4.60;99.90
74384;DHT22;62824;52.994;-3.936;2024-01-10T17:32:58;4.60;99.90
74384;DHT22;62824;52.994;-3.936;2024-01-10T17:35:25;4.50;99.90
74384;DHT22;62824;52.994;-3.936;2024-01-10T17:37:52;4.50;99.90
74384;DHT22;62824;52.994;-3.936;2024-01-10T17:40:17;4.50;99.90
74384;DHT22;62824;52.994;-3.936;2024-01-10T17:42:43;4.50;99.90
74384;DHT22;62824;52.994;-3.936;2024-01-10T17:45:09;4.50;99.90
74384;DHT22;62824;52.994;-3.936;2024-01-10T17:47:35;4.50;99.90
74384;DHT22;62824;52.994;-3.936;2024-01-10T17:50:01;4.50;99.90
74384;DHT22;62824;52.994;-3.936;2024-01-10T17:52:28;4.50;99.90
74384;DHT22;62824;52.994;-3.936;2024-01-10T17:54:54;4.50;99.90
74384;DHT22;62824;52.994;-3.936;2024-01-10T17:57:20;4.50;99.90
74384;DHT22;62824;52.994;-3.936;2024-01-10T17:59:49;4.60;99.90
74384;DHT22;62824;52.994;-3.936;2024-01-10T18:02:15;4.50;99.90
74384;DHT22;62824;52.994;-3.936;2024-01-10T18:04:40;4.60;99.90
74384;DHT22;62824;52.994;-3.936;2024-01-10T18:07:07;4.50;99.90
74384;DHT22;62824;52.994;-3.936;2024-01-10T18:09:32;4.50;99.90
74384;DHT22;62824;52.994;-3.936;2024-01-10T18:11:58;4.50;99.90
74384;DHT22;62824;52.994;-3.936;2024-01-10T18:14:26;4.50;99.90
74384;DHT22;62824;52.994;-3.936;2024-01-10T18:16:52;4.50;99.90
74384;DHT22;62824;52.994;-3.936;2024-01-10T18:19:18;4.60;99.90
74384;DHT22;62824;52.994;-3.936;2024-01-10T18:21:43;4.60;99.90
74384;DHT22;62824;52.994;-3.936;2024-01-10T18:24:09;4.60;99.90
74384;DHT22;62824;52.994;-3.936;2024-01-10T18:26:35;4.60;99.90
74384;DHT22;62824;52.994;-3.936;2024-01-10T18:29:01;4.60;99.90
74384;DHT22;62824;52.994;-3.936;2024-01-10T18:31:27;4.70;99.90
74384;DHT22;62824;52.994;-3.936;2024-01-10T18:33:53;4.70;99.90
74384;DHT22;62824;52.994;-3.936;2024-01-10T18:36:19;4.70;99.90
74384;DHT22;62824;52.994;-3.936;2024-01-10T18:38:45;4.70;99.90
74384;DHT22;62824;52.994;-3.936;2024-01-10T18:41:11;4.70;99.90
74384;DHT22;62824;52.994;-3.936;2024-01-10T18:43:37;4.70;99.90
74384;DHT22;62824;52.994;-3.936;2024-01-10T18:46:03;4.70;99.90
74384;DHT22;62824;52.994;-3.936;2024-01-10T18:48:29;4.70;99.90
74384;DHT22;62824;52.994;-3.936;2024-01-10T18:50:55;4.60;99.90
74384;DHT22;62824;52.994;-3.936;2024-01-10T18:53:21;4.60;99.90
74384;DHT22;62824;52.994;-3.936;2024-01-10T18:55:50;4.60;99.90
74384;DHT22;62824;52.994;-3.936;2024-01-10T18:58:19;4.60;99.90
74384;DHT22;62824;52.994;-3.936;2024-01-10T19:00:45;4.70;99.90
74384;DHT22;62824;52.994;-3.936;2024-01-10T19:03:11;4.60;99.90
74384;DHT22;62824;52.994;-3.936;2024-01-10T19:05:37;4.70;99.90
74384;DHT22;62824;52.994;-3.936;2024-01-10T19:08:03;4.70;99.90
74384;DHT22;62824;52.994;-3.936;2024-01-10T19:10:29;4.70;99.90
74384;DHT22;62824;52.994;-3.936;2024-01-10T19:12:55;4.70;99.90
74384;DHT22;62824;52.994;-3.936;2024-01-10T19:15:21;4.70;99.90
74384;DHT22;62824;52.994;-3.936;2024-01-10T19:17:46;4.70;99.90
74384;DHT22;62824;52.994;-3.936;2024-01-10T19:20:12;4.80;99.90
74384;DHT22;62824;52.994;-3.936;2024-01-10T19:22:38;4.80;99.90
74384;DHT22;62824;52.994;-3.936;2024-01-10T19:25:04;4.80;99.90
74384;DHT22;62824;52.994;-3.936;2024-01-10T19:27:30;4.70;99.90
74384;DHT22;62824;52.994;-3.936;2024-01-10T19:29:56;4.70;99.90
74384;DHT22;62824;52.994;-3.936;2024-01-10T19:32:22;4.70;99.90
74384;DHT22;62824;52.994;-3.936;2024-01-10T19:34:48;4.70;99.90
74384;DHT22;62824;52.994;-3.936;2024-01-10T19:37:14;4.80;99.90
74384;DHT22;62824;52.994;-3.936;2024-01-10T19:39:41;4.80;99.90
74384;DHT22;62824;52.994;-3.936;2024-01-10T19:42:06;4.80;99.90
74384;DHT22;62824;52.994;-3.936;2024-01-10T19:44:33;4.80;99.90
74384;DHT22;62824;52.994;-3.936;2024-01-10T19:46:58;4.80;99.90
74384;DHT22;62824;52.994;-3.936;2024-01-10T19:49:24;4.80;99.90
74384;DHT22;62824;52.994;-3.936;2024-01-10T19:51:51;4.80;99.90
74384;DHT22;62824;52.994;-3.936;2024-01-10T19:54:16;4.70;99.90
74384;DHT22;62824;52.994;-3.936;2024-01-10T19:56:42;4.80;99.90
74384;DHT22;62824;52.994;-3.936;2024-01-10T19:59:08;4.80;99.90
74384;DHT22;62824;52.994;-3.936;2024-01-10T20:01:34;4.80;99.90
74384;DHT22;62824;52.994;-3.936;2024-01-10T20:04:00;4.80;99.90
74384;DHT22;62824;52.994;-3.936;2024-01-10T20:06:26;4.80;99.90
74384;DHT22;62824;52.994;-3.936;2024-01-10T20:08:52;4.80;99.90
74384;DHT22;62824;52.994;-3.936;2024-01-10T20:11:18;4.80;99.90
74384;DHT22;62824;52.994;-3.936;2024-01-10T20:13:43;4.70;99.90
74384;DHT22;62824;52.994;-3.936;2024-01-10T20:16:09;4.70;99.90
74384;DHT22;62824;52.994;-3.936;2024-01-10T20:18:35;4.80;99.90
74384;DHT22;62824;52.994;-3.936;2024-01-10T20:21:04;4.80;99.90
74384;DHT22;62824;52.994;-3.936;2024-01-10T20:23:33;4.80;99.90
74384;DHT22;62824;52.994;-3.936;2024-01-10T20:25:59;4.70;99.90
74384;DHT22;62824;52.994;-3.936;2024-01-10T20:28:25;4.80;99.90
74384;DHT22;62824;52.994;-3.936;2024-01-10T20:30:51;4.80;99.90
74384;DHT22;62824;52.994;-3.936;2024-01-10T20:33:17;4.80;99.90
74384;DHT22;62824;52.994;-3.936;2024-01-10T20:35:43;4.70;99.90
74384;DHT22;62824;52.994;-3.936;2024-01-10T20:38:11;4.80;99.90
74384;DHT22;62824;52.994;-3.936;2024-01-10T20:40:38;4.80;99.90
74384;DHT22;62824;52.994;-3.936;2024-01-10T20:43:04;4.80;99.90
74384;DHT22;62824;52.994;-3.936;2024-01-10T20:45:30;4.80;99.90
74384;DHT22;62824;52.994;-3.936;2024-01-10T20:47:56;4.90;99.90
74384;DHT22;62824;52.994;-3.936;2024-01-10T20:50:24;4.90;99.90
74384;DHT22;62824;52.994;-3.936;2024-01-10T20:52:50;4.80;99.90
74384;DHT22;62824;52.994;-3.936;2024-01-10T20:55:16;4.80;99.90
74384;DHT22;62824;52.994;-3.936;2024-01-10T20:57:42;4.80;99.90
74384;DHT22;62824;52.994;-3.936;2024-01-10T21:00:08;4.80;99.90
74384;DHT22;62824;52.994;-3.936;2024-01-10T21:02:35;4.80;99.90
74384;DHT22;62824;52.994;-3.936;2024-01-10T21:05:02;4.80;99.90
74384;DHT22;62824;52.994;-3.936;2024-01-10T21:07:30;4.80;99.90
74384;DHT22;62824;52.994;-3.936;2024-01-10T21:09:56;4.80;99.90
74384;DHT22;62824;52.994;-3.936;2024-01-10T21:12:21;4.90;99.90
74384;DHT22;62824;52.994;-3.936;2024-01-10T21:14:47;4.80;99.90
74384;DHT22;62824;52.994;-3.936;2024-01-10T21:17:15;4.90;99.90
74384;DHT22;62824;52.994;-3.936;2024-01-10T21:19:42;4.90;99.90
74384;DHT22;62824;52.994;-3.936;2024-01-10T21:22:08;4.90;99.90
74384;DHT22;62824;52.994;-3.936;2024-01-10T21:24:34;4.80;99.90
74384;DHT22;62824;52.994;-3.936;2024-01-10T21:27:01;4.80;99.90
74384;DHT22;62824;52.994;-3.936;2024-01-10T21:29:31;4.80;99.90
74384;DHT22;62824;52.994;-3.936;2024-01-10T21:31:57;4.80;99.90
74384;DHT22;62824;52.994;-3.936;2024-01-10T21:34:23;4.80;99.90
74384;DHT22;62824;52.994;-3.936;2024-01-10T21:36:48;4.80;99.90
74384;DHT22;62824;52.994;-3.936;2024-01-10T21:39:15;4.80;99.90
74384;DHT22;62824;52.994;-3.936;2024-01-10T21:41:41;4.80;99.90
74384;DHT22;62824;52.994;-3.936;2024-01-10T21:44:07;4.90;99.90
74384;DHT22;62824;52.994;-3.936;2024-01-10T21:46:33;4.80;99.90
74384;DHT22;62824;52.994;-3.936;2024-01-10T21:48:58;4.80;99.90
74384;DHT22;62824;52.994;-3.936;2024-01-10T21:51:27;4.80;99.90
74384;DHT22;62824;52.994;-3.936;2024-01-10T21:53:52;4.80;99.90
74384;DHT22;62824;52.994;-3.936;2024-01-10T21:56:18;4.80;99.90
74384;DHT22;62824;52.994;-3.936;2024-01-10T21:58:47;4.80;99.90
74384;DHT22;62824;52.994;-3.936;2024-01-10T22:01:13;4.80;99.90
74384;DHT22;62824;52.994;-3.936;2024-01-10T22:03:39;4.80;99.90
74384;DHT22;62824;52.994;-3.936;2024-01-10T22:06:05;4.80;99.90
74384;DHT22;62824;52.994;-3.936;2024-01-10T22:08:32;4.80;99.90
74384;DHT22;62824;52.994;-3.936;2024-01-10T22:10:58;4.80;99.90
74384;DHT22;62824;52.994;-3.936;2024-01-10T22:13:23;4.70;99.90
74384;DHT22;62824;52.994;-3.936;2024-01-10T22:15:49;4.70;99.90
74384;DHT22;62824;52.994;-3.936;2024-01-10T22:18:18;4.70;99.90
74384;DHT22;62824;52.994;-3.936;2024-01-10T22:20:44;4.80;99.90